createdAt,value
2023-04-29T00:01:39.659Z,7.25
2023-04-29T00:04:07.071Z,7.50
2023-04-29T00:06:34.558Z,9.35
2023-04-29T00:09:01.711Z,8.82
2023-04-29T00:11:28.916Z,7.70
2023-04-29T00:13:56.064Z,9.50
2023-04-29T00:16:23.269Z,9.30
2023-04-29T00:18:50.453Z,8.32
2023-04-29T00:21:17.555Z,7.97
2023-04-29T00:23:44.699Z,9.68
2023-04-29T00:26:11.875Z,11.77
2023-04-29T00:31:07.484Z,7.57
2023-04-29T00:33:34.744Z,8.38
2023-04-29T00:36:02.193Z,8.85
2023-04-29T00:38:29.671Z,10.35
2023-04-29T00:40:57.527Z,9.98
2023-04-29T00:43:24.702Z,9.30
2023-04-29T00:45:52.082Z,11.35
2023-04-29T00:48:19.222Z,8.85
2023-04-29T00:50:46.451Z,8.85
2023-04-29T00:53:14.431Z,9.65
2023-04-29T00:55:44.099Z,9.68
2023-04-29T00:58:12.062Z,12.80
2023-04-29T01:00:39.585Z,8.65
2023-04-29T01:03:08.060Z,8.93
2023-04-29T01:05:35.330Z,10.32
2023-04-29T01:09:19.038Z,8.98
2023-04-29T01:12:25.268Z,7.85
2023-04-29T01:15:28.369Z,10.82
2023-04-29T01:18:08.543Z,8.85
2023-04-29T01:20:37.752Z,7.93
2023-04-29T01:23:05.059Z,8.77
2023-04-29T01:25:32.266Z,9.27
2023-04-29T01:29:07.908Z,9.25
2023-04-29T01:31:58.562Z,8.15
2023-04-29T01:34:47.108Z,7.85
2023-04-29T01:37:50.950Z,9.32
2023-04-29T01:40:34.208Z,10.13
2023-04-29T01:43:11.943Z,8.43
2023-04-29T01:45:42.114Z,12.50
2023-04-29T01:48:10.362Z,7.22
2023-04-29T01:50:37.549Z,8.65
2023-04-29T01:53:11.924Z,9.80
2023-04-29T01:55:39.556Z,9.73
2023-04-29T01:58:19.541Z,7.20
2023-04-29T02:01:06.099Z,8.38
2023-04-29T02:03:36.388Z,9.25
2023-04-29T02:06:07.057Z,11.40
2023-04-29T02:08:35.138Z,8.32
2023-04-29T02:11:02.469Z,8.63
2023-04-29T02:13:40.608Z,11.50
2023-04-29T02:16:15.000Z,10.85
2023-04-29T02:18:54.377Z,10.50
2023-04-29T02:21:22.846Z,9.37
2023-04-29T02:23:50.633Z,8.38
2023-04-29T02:26:17.948Z,11.63
2023-04-29T02:28:45.151Z,9.30
2023-04-29T02:31:13.124Z,9.68
2023-04-29T02:33:41.309Z,9.05
2023-04-29T02:36:10.042Z,7.72
2023-04-29T02:38:37.252Z,9.93
2023-04-29T02:41:04.469Z,8.38
2023-04-29T02:43:31.600Z,11.50
2023-04-29T02:46:00.326Z,14.13
2023-04-29T02:48:27.805Z,10.55
2023-04-29T02:50:54.938Z,10.65
2023-04-29T02:53:22.350Z,8.77
2023-04-29T02:55:49.781Z,12.23
2023-04-29T02:58:16.988Z,11.77
2023-04-29T03:00:44.181Z,11.50
2023-04-29T03:03:11.467Z,11.80
2023-04-29T03:05:38.762Z,11.50
2023-04-29T03:08:06.070Z,11.65
2023-04-29T03:10:33.562Z,11.20
2023-04-29T03:13:00.871Z,11.30
2023-04-29T03:15:28.365Z,10.05
2023-04-29T03:17:55.826Z,9.43
2023-04-29T03:20:23.547Z,9.27
2023-04-29T03:22:50.737Z,10.75
2023-04-29T03:25:18.612Z,10.95
2023-04-29T03:27:45.832Z,10.27
2023-04-29T03:30:15.632Z,12.50
2023-04-29T03:32:49.005Z,14.52
2023-04-29T03:35:16.577Z,9.48
2023-04-29T03:40:29.505Z,12.32
2023-04-29T03:42:56.849Z,15.38
2023-04-29T03:45:24.208Z,12.25
2023-04-29T03:47:52.239Z,14.98
2023-04-29T03:52:47.490Z,10.35
2023-04-29T03:55:17.152Z,9.75
2023-04-29T04:00:14.362Z,11.40
2023-04-29T04:02:45.170Z,11.68
2023-04-29T04:05:14.348Z,9.88
2023-04-29T04:07:45.340Z,12.20
2023-04-29T04:10:35.235Z,9.30
2023-04-29T04:13:06.667Z,11.70
2023-04-29T04:15:33.890Z,12.18
2023-04-29T04:18:01.274Z,12.18
2023-04-29T04:20:28.556Z,12.68
2023-04-29T04:22:55.912Z,14.02
2023-04-29T04:25:26.458Z,14.00
2023-04-29T04:27:57.578Z,13.45
2023-04-29T04:30:39.986Z,11.70
2023-04-29T04:33:07.253Z,11.60
2023-04-29T04:35:36.830Z,11.73
2023-04-29T04:38:04.002Z,10.77
2023-04-29T04:40:31.461Z,13.40
2023-04-29T04:43:16.949Z,11.70
2023-04-29T04:45:44.306Z,13.30
2023-04-29T04:48:11.576Z,11.73
2023-04-29T04:50:40.276Z,12.95
2023-04-29T04:53:07.555Z,11.90
2023-04-29T04:56:05.091Z,11.73
2023-04-29T04:58:33.534Z,12.65
2023-04-29T05:01:01.413Z,13.55
2023-04-29T05:03:28.925Z,12.73
2023-04-29T05:06:00.631Z,12.55
2023-04-29T05:08:28.772Z,11.23
2023-04-29T05:10:58.857Z,11.48
2023-04-29T05:13:26.773Z,10.63
2023-04-29T05:15:53.964Z,11.30
2023-04-29T05:18:24.786Z,14.82
2023-04-29T05:20:52.833Z,15.45
2023-04-29T05:23:20.050Z,15.63
2023-04-29T05:25:47.690Z,15.25
2023-04-29T05:28:17.295Z,14.10
2023-04-29T05:30:45.740Z,13.35
2023-04-29T05:33:13.253Z,15.05
2023-04-29T05:35:40.436Z,17.95
2023-04-29T05:38:08.114Z,13.07
2023-04-29T05:40:49.935Z,13.02
2023-04-29T05:43:23.008Z,12.48
2023-04-29T05:45:50.570Z,17.77
2023-04-29T05:48:17.842Z,16.67
2023-04-29T05:50:45.643Z,15.18
2023-04-29T05:53:12.944Z,15.18
2023-04-29T05:55:44.729Z,17.65
2023-04-29T05:58:13.271Z,18.95
2023-04-29T06:00:40.921Z,22.58
2023-04-29T06:03:15.330Z,23.15
2023-04-29T06:05:42.963Z,18.88
2023-04-29T06:08:20.248Z,16.92
2023-04-29T06:10:53.154Z,17.27
2023-04-29T06:13:20.856Z,14.95
2023-04-29T06:15:49.568Z,16.30
2023-04-29T06:20:44.362Z,15.55
2023-04-29T06:23:11.723Z,15.68
2023-04-29T06:25:39.422Z,17.52
2023-04-29T06:28:08.796Z,18.15
2023-04-29T06:30:37.391Z,15.18
2023-04-29T06:33:04.855Z,13.00
2023-04-29T06:35:32.188Z,14.75
2023-04-29T06:38:05.126Z,11.57
2023-04-29T06:40:52.051Z,12.75
2023-04-29T06:43:39.521Z,14.23
2023-04-29T06:46:45.496Z,13.13
2023-04-29T06:49:43.713Z,11.20
2023-04-29T06:52:10.874Z,13.48
2023-04-29T06:54:38.237Z,11.45
2023-04-29T06:57:05.396Z,11.77
2023-04-29T06:59:32.902Z,11.30
2023-04-29T07:02:00.121Z,11.77
2023-04-29T07:04:27.302Z,12.57
2023-04-29T07:06:55.612Z,15.05
2023-04-29T07:11:50.948Z,12.82
2023-04-29T07:14:22.290Z,12.02
2023-04-29T07:16:54.923Z,12.48
2023-04-29T07:19:22.117Z,13.88
2023-04-29T07:21:49.556Z,13.38
2023-04-29T07:24:17.077Z,15.07
2023-04-29T07:26:46.802Z,12.02
2023-04-29T07:29:16.154Z,13.15
2023-04-29T07:31:43.395Z,12.40
2023-04-29T07:34:10.707Z,11.77
2023-04-29T07:36:39.378Z,11.00
2023-04-29T07:39:06.964Z,11.98
2023-04-29T07:41:34.172Z,14.63
2023-04-29T07:44:01.418Z,12.52
2023-04-29T07:46:28.792Z,11.63
2023-04-29T07:48:56.406Z,14.55
2023-04-29T07:51:23.724Z,16.60
2023-04-29T07:53:50.876Z,14.20
2023-04-29T07:56:18.937Z,11.55
2023-04-29T08:01:13.382Z,13.02
2023-04-29T08:03:42.117Z,15.77
2023-04-29T08:06:10.917Z,14.48
2023-04-29T08:08:38.217Z,15.88
2023-04-29T08:11:06.612Z,13.20
2023-04-29T08:13:33.951Z,12.75
2023-04-29T08:16:01.692Z,15.25
2023-04-29T08:18:28.983Z,15.65
2023-04-29T08:20:56.429Z,14.70
2023-04-29T08:23:23.711Z,13.90
2023-04-29T08:25:52.220Z,15.05
2023-04-29T08:28:19.693Z,19.83
2023-04-29T08:30:46.948Z,15.50
2023-04-29T08:33:14.679Z,15.07
2023-04-29T08:35:42.627Z,13.85
2023-04-29T08:38:10.139Z,13.20
2023-04-29T08:40:45.776Z,17.63
2023-04-29T08:43:17.654Z,12.75
2023-04-29T08:45:48.744Z,16.10
2023-04-29T08:48:20.010Z,12.90
2023-04-29T08:50:47.325Z,15.20
2023-04-29T08:53:15.040Z,13.00
2023-04-29T08:55:47.205Z,13.35
2023-04-29T08:58:16.415Z,16.55
2023-04-29T09:00:45.070Z,14.10
2023-04-29T09:03:24.772Z,11.88
2023-04-29T09:05:56.470Z,11.75
2023-04-29T09:08:25.340Z,13.10
2023-04-29T09:10:53.193Z,14.55
2023-04-29T09:13:31.406Z,12.70
2023-04-29T09:15:59.287Z,13.45
2023-04-29T09:18:51.750Z,12.82
2023-04-29T09:21:29.228Z,11.23
2023-04-29T09:24:00.302Z,12.43
2023-04-29T09:26:36.753Z,12.90
2023-04-29T09:29:18.248Z,16.35
2023-04-29T09:31:47.682Z,12.25
2023-04-29T09:34:15.887Z,13.55
2023-04-29T09:36:56.764Z,14.60
2023-04-29T09:39:24.830Z,11.52
2023-04-29T09:41:55.178Z,13.55
2023-04-29T09:44:34.644Z,13.50
2023-04-29T09:47:05.776Z,12.55
2023-04-29T09:49:41.893Z,12.20
2023-04-29T09:52:12.926Z,12.15
2023-04-29T09:54:42.755Z,12.32
2023-04-29T09:57:12.749Z,14.95
2023-04-29T09:59:42.362Z,14.60
2023-04-29T10:02:18.977Z,11.60
2023-04-29T10:04:54.671Z,13.55
2023-04-29T10:07:28.098Z,13.27
2023-04-29T10:09:56.072Z,13.05
2023-04-29T10:12:25.139Z,13.75
2023-04-29T10:15:24.948Z,12.85
2023-04-29T10:18:28.880Z,15.73
2023-04-29T10:21:00.260Z,12.82
2023-04-29T10:23:27.664Z,11.93
2023-04-29T10:25:57.497Z,15.27
2023-04-29T10:28:26.252Z,13.68
2023-04-29T10:30:56.114Z,16.25
2023-04-29T10:33:23.737Z,14.88
2023-04-29T10:35:53.679Z,14.85
2023-04-29T10:38:44.641Z,13.75
2023-04-29T10:41:26.829Z,12.05
2023-04-29T10:43:55.246Z,12.20
2023-04-29T10:46:28.834Z,14.95
2023-04-29T10:49:06.414Z,11.65
2023-04-29T10:51:45.514Z,12.32
2023-04-29T10:54:20.334Z,15.18
2023-04-29T10:56:54.012Z,15.30
2023-04-29T10:59:28.422Z,11.75
2023-04-29T11:01:55.979Z,18.60
2023-04-29T11:04:23.611Z,11.38
2023-04-29T11:06:59.212Z,13.38
2023-04-29T11:09:34.173Z,13.20
2023-04-29T11:12:06.061Z,12.30
2023-04-29T11:14:38.758Z,11.80
2023-04-29T11:17:23.417Z,14.00
2023-04-29T11:19:53.174Z,12.30
2023-04-29T11:22:33.815Z,13.35
2023-04-29T11:27:41.210Z,11.15
2023-04-29T11:30:09.705Z,11.93
2023-04-29T11:32:42.911Z,13.82
2023-04-29T11:35:19.807Z,15.38
2023-04-29T11:37:47.723Z,13.20
2023-04-29T11:40:16.728Z,14.80
2023-04-29T11:42:53.562Z,11.95
2023-04-29T11:45:20.844Z,12.18
2023-04-29T11:47:49.625Z,12.15
2023-04-29T11:50:20.154Z,13.45
2023-04-29T11:52:49.366Z,13.23
2023-04-29T11:55:16.676Z,11.07
2023-04-29T11:57:44.542Z,10.23
2023-04-29T12:00:16.545Z,14.45
2023-04-29T12:02:48.466Z,10.70
2023-04-29T12:05:17.559Z,14.43
2023-04-29T12:07:45.170Z,12.50
2023-04-29T12:10:12.893Z,16.20
2023-04-29T12:12:43.587Z,12.88
2023-04-29T12:15:12.543Z,12.82
2023-04-29T12:17:40.292Z,9.93
2023-04-29T12:20:10.480Z,10.82
2023-04-29T12:22:38.050Z,13.15
2023-04-29T12:25:07.561Z,11.60
2023-04-29T12:27:36.766Z,11.57
2023-04-29T12:30:09.514Z,11.68
2023-04-29T12:32:37.271Z,10.02
2023-04-29T12:35:05.069Z,12.48
2023-04-29T12:37:33.288Z,13.63
2023-04-29T12:40:00.439Z,10.98
2023-04-29T12:42:34.118Z,10.27
2023-04-29T12:45:01.402Z,12.00
2023-04-29T12:47:37.167Z,12.20
2023-04-29T12:50:07.367Z,11.05
2023-04-29T12:52:36.532Z,11.68
2023-04-29T12:55:04.791Z,13.35
2023-04-29T12:57:32.313Z,10.70
2023-04-29T12:59:59.971Z,10.68
2023-04-29T13:02:30.255Z,13.15
2023-04-29T13:04:58.224Z,14.23
2023-04-29T13:07:26.627Z,11.27
2023-04-29T13:09:53.911Z,12.13
2023-04-29T13:12:21.622Z,10.65
2023-04-29T13:14:48.749Z,11.50
2023-04-29T13:17:15.913Z,11.23
2023-04-29T13:19:51.249Z,10.30
2023-04-29T13:22:19.342Z,9.27
2023-04-29T13:24:46.814Z,13.68
2023-04-29T13:27:14.077Z,9.60
2023-04-29T13:29:41.339Z,9.02
2023-04-29T13:32:08.969Z,10.50
2023-04-29T13:34:43.212Z,12.48
2023-04-29T13:37:11.624Z,9.77
2023-04-29T13:39:38.989Z,9.27
2023-04-29T13:42:06.575Z,11.52
2023-04-29T13:44:47.159Z,9.55
2023-04-29T13:47:25.972Z,12.00
2023-04-29T13:50:23.818Z,11.73
2023-04-29T13:55:39.644Z,11.85
2023-04-29T13:58:43.388Z,9.93
2023-04-29T14:01:17.238Z,11.73
2023-04-29T14:03:35.906Z,9.70
2023-04-29T14:06:03.684Z,9.95
2023-04-29T14:08:30.907Z,9.90
2023-04-29T14:10:58.235Z,10.35
2023-04-29T14:13:25.484Z,10.23
2023-04-29T14:15:54.292Z,11.40
2023-04-29T14:18:23.324Z,13.15
2023-04-29T14:20:50.471Z,11.15
2023-04-29T14:23:17.640Z,11.70
2023-04-29T14:25:44.899Z,12.05
2023-04-29T14:28:12.627Z,13.80
2023-04-29T14:30:41.035Z,11.00
2023-04-29T14:33:08.259Z,11.15
2023-04-29T14:35:35.485Z,12.57
2023-04-29T14:38:02.638Z,11.02
2023-04-29T14:40:29.874Z,12.45
2023-04-29T14:42:57.058Z,10.30
2023-04-29T14:45:24.185Z,9.77
2023-04-29T14:47:51.375Z,10.80
2023-04-29T14:50:18.886Z,16.02
2023-04-29T14:52:46.296Z,11.60
2023-04-29T14:55:13.557Z,10.93
2023-04-29T14:57:40.700Z,14.70
2023-04-29T15:00:09.121Z,10.77
2023-04-29T15:02:36.340Z,11.75
2023-04-29T15:05:04.924Z,10.85
2023-04-29T15:07:33.557Z,13.05
2023-04-29T15:10:00.840Z,14.73
2023-04-29T15:12:29.305Z,11.60
2023-04-29T15:14:56.586Z,14.02
2023-04-29T15:17:24.079Z,10.93
2023-04-29T15:19:51.294Z,10.70
2023-04-29T15:22:18.533Z,11.85
2023-04-29T15:24:45.937Z,11.93
2023-04-29T15:27:13.125Z,13.77
2023-04-29T15:29:41.519Z,10.60
2023-04-29T15:32:10.463Z,11.82
2023-04-29T15:34:37.761Z,11.75
2023-04-29T15:37:04.945Z,12.55
2023-04-29T15:39:32.120Z,12.50
2023-04-29T15:41:59.655Z,12.48
2023-04-29T15:44:26.833Z,10.63
2023-04-29T15:46:55.301Z,13.00
2023-04-29T15:49:24.556Z,10.88
2023-04-29T15:51:52.138Z,10.80
2023-04-29T15:54:19.350Z,12.88
2023-04-29T15:56:46.946Z,10.23
2023-04-29T15:59:15.678Z,11.30
2023-04-29T16:01:43.014Z,12.15
2023-04-29T16:04:10.247Z,9.63
2023-04-29T16:06:37.491Z,11.48
2023-04-29T16:09:05.419Z,10.05
2023-04-29T16:11:33.050Z,12.30
2023-04-29T16:14:00.161Z,14.20
2023-04-29T16:16:29.406Z,11.70
2023-04-29T16:18:57.329Z,14.82
2023-04-29T16:21:24.622Z,12.15
2023-04-29T16:23:52.177Z,14.45
2023-04-29T16:26:19.476Z,10.45
2023-04-29T16:28:46.620Z,12.40
2023-04-29T16:31:13.807Z,12.88
2023-04-29T16:33:41.742Z,11.50
2023-04-29T16:38:36.293Z,12.05
2023-04-29T16:41:03.433Z,14.18
2023-04-29T16:43:30.726Z,11.05
2023-04-29T16:45:58.537Z,13.63
2023-04-29T16:50:52.799Z,12.10
2023-04-29T16:53:20.111Z,10.40
2023-04-29T16:55:47.873Z,12.88
2023-04-29T16:58:15.001Z,13.98
2023-04-29T17:00:42.499Z,14.10
2023-04-29T17:03:10.123Z,12.88
2023-04-29T17:05:38.541Z,13.68
2023-04-29T17:08:06.191Z,12.32
2023-04-29T17:10:33.426Z,16.23
2023-04-29T17:13:03.564Z,15.23
2023-04-29T17:15:30.700Z,12.77
2023-04-29T17:17:58.030Z,12.82
2023-04-29T17:20:25.197Z,15.80
2023-04-29T17:22:52.447Z,16.98
2023-04-29T17:25:22.370Z,15.20
2023-04-29T17:27:49.621Z,15.23
2023-04-29T17:30:16.835Z,14.25
2023-04-29T17:32:44.459Z,26.77
2023-04-29T17:35:11.761Z,15.13
2023-04-29T17:37:38.927Z,18.55
2023-04-29T17:40:07.296Z,14.90
2023-04-29T17:42:34.490Z,16.58
2023-04-29T17:45:01.932Z,17.08
2023-04-29T17:47:29.680Z,18.55
2023-04-29T17:50:00.314Z,16.30
2023-04-29T17:52:29.277Z,14.85
2023-04-29T17:54:56.514Z,17.15
2023-04-29T17:57:24.049Z,15.10
2023-04-29T17:59:51.338Z,16.27
2023-04-29T18:02:18.685Z,16.98
2023-04-29T18:04:46.469Z,15.45
2023-04-29T18:07:13.624Z,18.55
2023-04-29T18:09:40.740Z,17.13
2023-04-29T18:12:07.951Z,18.13
2023-04-29T18:14:35.153Z,17.15
2023-04-29T18:17:02.481Z,18.95
2023-04-29T18:19:29.913Z,21.90
2023-04-29T18:21:58.287Z,21.33
2023-04-29T18:24:25.970Z,21.70
2023-04-29T18:26:53.180Z,18.73
2023-04-29T18:29:20.307Z,18.42
2023-04-29T18:31:47.489Z,17.52
2023-04-29T18:34:16.379Z,18.13
2023-04-29T18:36:43.630Z,21.13
2023-04-29T18:39:10.738Z,24.02
2023-04-29T18:41:38.006Z,18.52
2023-04-29T18:44:05.187Z,21.23
2023-04-29T18:46:32.382Z,45.25
2023-04-29T18:48:59.582Z,21.92
2023-04-29T18:51:27.961Z,33.40
2023-04-29T18:53:55.236Z,23.23
2023-04-29T18:56:22.516Z,19.70
2023-04-29T18:58:50.120Z,16.88
2023-04-29T19:01:17.566Z,19.95
2023-04-29T19:03:44.779Z,18.90
2023-04-29T19:06:11.932Z,20.90
2023-04-29T19:08:39.264Z,21.60
2023-04-29T19:11:06.386Z,19.80
2023-04-29T19:13:33.565Z,18.70
2023-04-29T19:16:00.918Z,21.02
2023-04-29T19:18:28.517Z,20.13
2023-04-29T19:20:56.624Z,19.67
2023-04-29T19:23:23.744Z,23.98
2023-04-29T19:25:50.978Z,21.70
2023-04-29T19:28:19.594Z,20.95
2023-04-29T19:30:46.847Z,20.80
2023-04-29T19:33:14.066Z,22.02
2023-04-29T19:35:41.294Z,22.75
2023-04-29T19:38:08.546Z,20.70
2023-04-29T19:40:35.741Z,20.08
2023-04-29T19:43:03.203Z,21.45
2023-04-29T19:45:30.316Z,20.23
2023-04-29T19:47:59.519Z,22.20
2023-04-29T19:50:27.066Z,23.02
2023-04-29T19:52:54.219Z,23.38
2023-04-29T19:55:21.704Z,24.30
2023-04-29T19:57:49.113Z,20.60
2023-04-29T20:00:17.308Z,22.17
2023-04-29T20:05:13.204Z,24.02
2023-04-29T20:07:41.224Z,26.15
2023-04-29T20:10:09.503Z,28.63
2023-04-29T20:15:05.812Z,26.20
2023-04-29T20:17:33.067Z,26.52
2023-04-29T20:20:00.224Z,26.58
2023-04-29T20:22:27.410Z,27.42
2023-04-29T20:24:54.590Z,28.23
2023-04-29T20:27:21.761Z,27.20
2023-04-29T20:29:48.918Z,29.70
2023-04-29T20:32:16.083Z,27.30
2023-04-29T20:34:46.027Z,29.73
2023-04-29T20:37:13.242Z,25.23
2023-04-29T20:39:40.370Z,27.75
2023-04-29T20:42:07.804Z,28.40
2023-04-29T20:44:38.448Z,26.30
2023-04-29T20:47:05.991Z,28.10
2023-04-29T20:49:33.362Z,27.25
2023-04-29T20:52:00.908Z,27.38
2023-04-29T20:54:28.076Z,28.00
2023-04-29T20:56:55.209Z,24.33
2023-04-29T20:59:22.521Z,29.13
2023-04-29T21:01:49.807Z,29.42
2023-04-29T21:04:17.520Z,25.70
2023-04-29T21:06:44.698Z,29.67
2023-04-29T21:09:11.943Z,25.63
2023-04-29T21:11:39.130Z,27.77
2023-04-29T21:14:06.262Z,27.85
2023-04-29T21:16:33.450Z,29.92
2023-04-29T21:19:00.583Z,29.05
2023-04-29T21:21:27.744Z,29.52
2023-04-29T21:23:54.942Z,27.92
2023-04-29T21:26:22.071Z,27.23
2023-04-29T21:28:49.342Z,27.63
2023-04-29T21:31:17.053Z,24.80
2023-04-29T21:33:45.071Z,26.20
2023-04-29T21:36:13.077Z,23.58
2023-04-29T21:38:42.521Z,24.80
2023-04-29T21:41:24.829Z,24.77
2023-04-29T21:43:52.573Z,25.45
2023-04-29T21:46:20.183Z,23.23
2023-04-29T21:48:47.738Z,30.52
2023-04-29T21:51:15.094Z,23.73
2023-04-29T21:53:42.696Z,23.00
2023-04-29T21:56:09.841Z,26.08
2023-04-29T21:58:37.016Z,21.33
2023-04-29T22:01:15.689Z,22.98
2023-04-29T22:03:42.984Z,23.90
2023-04-29T22:06:10.287Z,21.88
2023-04-29T22:08:37.501Z,21.42
2023-04-29T22:11:04.676Z,20.85
2023-04-29T22:13:31.804Z,26.50
2023-04-29T22:15:58.926Z,23.30
2023-04-29T22:18:26.134Z,22.88
2023-04-29T22:20:53.258Z,23.45
2023-04-29T22:23:22.604Z,22.45
2023-04-29T22:25:49.752Z,22.70
2023-04-29T22:28:17.032Z,25.42
2023-04-29T22:30:44.181Z,19.25
2023-04-29T22:33:13.453Z,24.88
2023-04-29T22:35:40.887Z,21.27
2023-04-29T22:38:08.066Z,21.45
2023-04-29T22:40:37.101Z,21.88
2023-04-29T22:43:04.460Z,19.95
2023-04-29T22:45:31.995Z,21.98
2023-04-29T22:47:59.170Z,22.08
2023-04-29T22:50:26.366Z,24.70
2023-04-29T22:52:53.718Z,23.50
2023-04-29T22:55:21.020Z,24.38
2023-04-29T22:57:51.862Z,22.17
2023-04-29T23:00:19.135Z,23.42
2023-04-29T23:02:46.479Z,23.48
2023-04-29T23:05:13.670Z,20.88
2023-04-29T23:07:41.185Z,23.92
2023-04-29T23:10:08.979Z,20.60
2023-04-29T23:12:36.126Z,26.00
2023-04-29T23:15:05.008Z,22.73
2023-04-29T23:17:33.787Z,21.38
2023-04-29T23:20:01.043Z,21.80
2023-04-29T23:22:28.211Z,22.67
2023-04-29T23:24:55.463Z,20.98
2023-04-29T23:27:22.605Z,21.35
2023-04-29T23:29:49.795Z,23.02
2023-04-29T23:32:16.944Z,23.30
2023-04-29T23:34:44.073Z,22.02
2023-04-29T23:37:11.209Z,21.90
2023-04-29T23:39:38.328Z,26.15
2023-04-29T23:42:05.628Z,18.88
2023-04-29T23:44:32.877Z,20.63
2023-04-29T23:47:00.021Z,21.83
2023-04-29T23:49:27.314Z,22.40
2023-04-29T23:51:54.484Z,20.25
2023-04-29T23:54:21.623Z,18.00
2023-04-29T23:56:48.811Z,22.55
2023-04-29T23:59:16.113Z,21.27
